Time;durP1;ratioP1;P1;durP2;ratioP2;P2;SDS_P1;SDS_P2;PMS_P1;PMS_P2;Temp;Humidity;BMP_temperature;BMP_pressure;BME280_temperature;BME280_humidity;BME280_pressure;Samples;Min_cycle;Max_cycle;Signal;HPM_P1;HPM_P2
2021/04/25 00:00:42;;;;;;;9.93;3.00;;;7.70;99.90;;;;;;5096591;28;20250;-68
2021/04/25 00:03:08;;;;;;;6.07;2.47;;;7.70;99.90;;;;;;5096444;28;20274;-69
2021/04/25 00:05:34;;;;;;;4.33;1.80;;;7.90;99.90;;;;;;5096551;28;20719;-69
2021/04/25 00:07:59;;;;;;;8.50;2.28;;;7.50;99.90;;;;;;5096337;28;20231;-69
2021/04/25 00:10:25;;;;;;;6.83;2.00;;;7.60;99.90;;;;;;5096536;28;20190;-69
2021/04/25 00:12:50;;;;;;;3.77;1.70;;;7.50;99.90;;;;;;5096106;28;20528;-69
2021/04/25 00:15:21;;;;;;;3.50;1.60;;;7.30;99.90;;;;;;5096190;28;20241;-68
2021/04/25 00:17:47;;;;;;;5.10;2.22;;;7.30;99.90;;;;;;5096416;28;20156;-69
2021/04/25 00:20:14;;;;;;;4.87;2.00;;;7.00;99.90;;;;;;5096016;28;20567;-68
2021/04/25 00:22:41;;;;;;;5.65;2.00;;;7.40;99.90;;;;;;5095979;28;20410;-69
2021/04/25 00:25:08;;;;;;;9.25;1.80;;;7.20;99.90;;;;;;5095918;28;20612;-69
2021/04/25 00:27:34;;;;;;;2.67;1.63;;;7.10;99.90;;;;;;5095867;28;20246;-69
2021/04/25 00:29:59;;;;;;;5.83;2.70;;;7.00;99.90;;;;;;5095812;28;20259;-69
2021/04/25 00:32:25;;;;;;;4.10;1.93;;;6.90;99.90;;;;;;5096173;28;20179;-69
2021/04/25 00:34:51;;;;;;;3.60;1.60;;;7.20;99.90;;;;;;5095651;28;20731;-69
2021/04/25 00:37:17;;;;;;;8.15;2.13;;;7.20;99.90;;;;;;5096003;28;20220;-69
2021/04/25 00:39:43;;;;;;;3.10;2.00;;;7.20;99.90;;;;;;5096081;28;20581;-69
2021/04/25 00:42:08;;;;;;;3.97;1.63;;;6.90;99.90;;;;;;5095728;28;20596;-70
2021/04/25 00:44:34;;;;;;;4.00;1.73;;;6.90;99.90;;;;;;5096239;28;20203;-70
2021/04/25 00:46:59;;;;;;;5.10;2.43;;;7.10;99.90;;;;;;5094186;28;20179;-70
2021/04/25 00:49:25;;;;;;;23.93;2.37;;;7.00;99.90;;;;;;5095459;28;20636;-70
2021/04/25 00:51:51;;;;;;;7.40;2.40;;;6.80;99.90;;;;;;5095995;28;20175;-70
2021/04/25 00:54:17;;;;;;;4.20;2.30;;;6.80;99.90;;;;;;5094771;28;20278;-69
2021/04/25 00:56:42;;;;;;;9.17;2.70;;;6.90;99.90;;;;;;5095547;28;20843;-69
2021/04/25 00:59:08;;;;;;;5.67;2.00;;;7.00;99.90;;;;;;5095519;28;20387;-70
2021/04/25 01:01:34;;;;;;;5.07;2.50;;;6.80;99.90;;;;;;5095486;28;20170;-70
2021/04/25 01:04:00;;;;;;;5.30;2.17;;;6.80;99.90;;;;;;5095083;28;20278;-70
2021/04/25 01:06:25;;;;;;;7.60;3.33;;;6.90;99.90;;;;;;5095442;28;20195;-70
2021/04/25 01:08:51;;;;;;;6.03;1.93;;;6.70;99.90;;;;;;5094904;28;20187;-70
2021/04/25 01:11:17;;;;;;;4.77;2.00;;;6.90;99.90;;;;;;5095123;28;20263;-70
2021/04/25 01:13:43;;;;;;;4.82;2.58;;;6.90;99.90;;;;;;5095107;28;20210;-70
2021/04/25 01:16:08;;;;;;;6.03;2.47;;;6.70;99.90;;;;;;5094931;28;20688;-70
2021/04/25 01:18:34;;;;;;;8.20;2.87;;;6.60;99.90;;;;;;5094915;28;20254;-70
2021/04/25 01:21:02;;;;;;;6.47;2.73;;;6.50;99.90;;;;;;5095357;28;20254;-70
2021/04/25 01:23:27;;;;;;;5.65;2.97;;;6.40;99.90;;;;;;5094749;28;20248;-70
2021/04/25 01:25:53;;;;;;;8.27;2.30;;;6.40;99.90;;;;;;5094892;28;20167;-70
2021/04/25 01:28:19;;;;;;;7.97;3.07;;;6.10;99.90;;;;;;5094732;28;20578;-70
2021/04/25 01:30:44;;;;;;;6.23;3.57;;;6.50;99.90;;;;;;5094652;28;20401;-70
2021/04/25 01:33:10;;;;;;;9.87;3.70;;;6.50;99.90;;;;;;5094557;28;20240;-70
2021/04/25 01:35:36;;;;;;;4.60;2.20;;;6.40;99.90;;;;;;5094733;28;20268;-70
2021/04/25 01:38:02;;;;;;;6.10;3.13;;;6.40;99.90;;;;;;5094731;28;20409;-70
2021/04/25 01:40:30;;;;;;;5.97;2.13;;;6.40;99.90;;;;;;5094445;28;20247;-70
2021/04/25 01:42:57;;;;;;;7.70;2.75;;;6.50;99.90;;;;;;5094224;28;20176;-70
2021/04/25 01:45:23;;;;;;;10.95;2.95;;;6.30;99.90;;;;;;5094570;28;20179;-70
2021/04/25 01:47:51;;;;;;;9.17;2.53;;;6.10;99.90;;;;;;5094327;28;20172;-70
2021/04/25 01:50:20;;;;;;;5.40;3.05;;;6.20;99.90;;;;;;5094817;28;20213;-70
2021/04/25 01:52:46;;;;;;;5.97;2.80;;;6.30;99.90;;;;;;5094177;28;20644;-70
2021/04/25 01:55:13;;;;;;;10.20;2.60;;;6.00;99.90;;;;;;5094480;28;20290;-70
2021/04/25 01:57:39;;;;;;;7.38;4.65;;;5.90;99.90;;;;;;5095307;28;20277;-69
2021/04/25 02:00:08;;;;;;;5.70;3.00;;;5.90;99.90;;;;;;5094477;28;20187;-70
2021/04/25 02:02:34;;;;;;;12.18;3.05;;;6.10;99.90;;;;;;5094333;28;20163;-70
2021/04/25 02:05:00;;;;;;;5.67;2.77;;;5.80;99.90;;;;;;5093220;28;20198;-70
2021/04/25 02:07:25;;;;;;;4.57;2.47;;;5.80;99.90;;;;;;5094107;28;20586;-70
2021/04/25 02:09:51;;;;;;;8.20;3.10;;;5.70;99.90;;;;;;5093837;28;20720;-70
2021/04/25 02:12:16;;;;;;;7.60;3.80;;;5.90;99.90;;;;;;5093874;28;20243;-70
2021/04/25 02:14:43;;;;;;;9.53;3.97;;;6.20;99.90;;;;;;5093639;28;20286;-70
2021/04/25 02:17:09;;;;;;;11.05;3.40;;;6.00;99.90;;;;;;5094031;28;20260;-70
2021/04/25 02:19:34;;;;;;;4.97;2.87;;;5.90;99.90;;;;;;5093751;28;20194;-70
2021/04/25 02:22:00;;;;;;;10.10;4.20;;;6.00;99.90;;;;;;5093776;28;20405;-69
2021/04/25 02:24:26;;;;;;;8.40;3.53;;;5.80;99.90;;;;;;5093641;28;20305;-70
2021/04/25 02:26:51;;;;;;;8.50;3.80;;;5.60;99.90;;;;;;5093572;28;20171;-70
2021/04/25 02:29:17;;;;;;;6.40;3.10;;;5.60;99.90;;;;;;5093541;28;20171;-70
2021/04/25 02:31:42;;;;;;;9.57;4.07;;;5.50;99.90;;;;;;5093488;28;20175;-70
2021/04/25 02:34:08;;;;;;;15.10;3.80;;;5.50;99.90;;;;;;5093413;28;20222;-70
2021/04/25 02:36:33;;;;;;;6.20;3.73;;;5.50;99.90;;;;;;5093406;28;20167;-70
2021/04/25 02:38:59;;;;;;;7.70;2.90;;;5.40;99.90;;;;;;5093683;28;20171;-70
2021/04/25 02:41:27;;;;;;;6.07;3.67;;;5.40;99.90;;;;;;5093640;28;20197;-70
2021/04/25 02:43:52;;;;;;;8.20;3.65;;;5.50;99.90;;;;;;5093458;28;20191;-70
2021/04/25 02:46:18;;;;;;;8.00;3.17;;;5.30;99.90;;;;;;5093248;28;20666;-70
2021/04/25 02:48:44;;;;;;;5.00;2.83;;;5.30;99.90;;;;;;5093467;28;20186;-69
2021/04/25 02:51:10;;;;;;;7.07;3.30;;;5.30;99.90;;;;;;5093205;28;20171;-69
2021/04/25 02:53:35;;;;;;;8.23;3.60;;;5.10;99.90;;;;;;5093174;28;20229;-69
2021/04/25 02:56:01;;;;;;;5.40;2.83;;;5.20;99.90;;;;;;5093199;28;20190;-69
2021/04/25 02:58:26;;;;;;;11.23;3.30;;;5.20;99.90;;;;;;5093139;28;20163;-70
2021/04/25 03:00:52;;;;;;;7.20;3.03;;;5.20;99.90;;;;;;5093110;28;20175;-70
2021/04/25 03:03:17;;;;;;;5.83;2.83;;;5.50;99.90;;;;;;5093149;28;20721;-69
2021/04/25 03:05:43;;;;;;;9.93;3.97;;;5.20;99.90;;;;;;5093066;28;20216;-70
2021/04/25 03:08:09;;;;;;;8.13;3.70;;;5.20;99.90;;;;;;5092906;28;20189;-69
2021/04/25 03:10:35;;;;;;;11.57;4.03;;;5.00;99.90;;;;;;5093013;28;20154;-69
2021/04/25 03:13:00;;;;;;;6.73;3.00;;;5.00;99.90;;;;;;5092874;28;20953;-69
2021/04/25 03:15:26;;;;;;;9.50;3.53;;;5.10;99.90;;;;;;5092870;28;20452;-69
2021/04/25 03:17:52;;;;;;;6.47;3.28;;;5.00;99.90;;;;;;5099839;28;20160;-69
2021/04/25 03:20:20;;;;;;;4.43;3.10;;;4.90;99.90;;;;;;5099623;28;20224;-69
2021/04/25 03:22:46;;;;;;;10.77;3.33;;;5.30;99.90;;;;;;5099621;28;20254;-69
2021/04/25 03:25:13;;;;;;;9.33;3.40;;;5.20;99.90;;;;;;5099528;28;20274;-69
2021/04/25 03:27:39;;;;;;;5.93;3.35;;;5.00;99.90;;;;;;5099810;28;20513;-69
2021/04/25 03:30:07;;;;;;;9.07;3.80;;;5.00;99.90;;;;;;5099479;28;20297;-69
2021/04/25 03:32:33;;;;;;;8.30;3.60;;;4.80;99.90;;;;;;5099790;28;20252;-69
2021/04/25 03:34:59;;;;;;;11.93;3.43;;;4.90;99.90;;;;;;5099597;28;20238;-69
2021/04/25 03:37:24;;;;;;;8.97;3.73;;;5.00;99.90;;;;;;5099874;28;20881;-68
2021/04/25 03:39:50;;;;;;;18.77;4.43;;;4.90;99.90;;;;;;5099441;28;20182;-69
2021/04/25 03:42:16;;;;;;;6.83;3.03;;;5.00;99.90;;;;;;5099692;28;20183;-69
2021/04/25 03:44:41;;;;;;;7.97;3.40;;;4.90;99.90;;;;;;5099340;28;20199;-69
2021/04/25 03:47:07;;;;;;;12.63;3.73;;;5.10;99.90;;;;;;5099408;28;20228;-69
2021/04/25 03:49:33;;;;;;;12.18;2.92;;;4.80;99.90;;;;;;5099300;28;20179;-69
2021/04/25 03:51:58;;;;;;;5.33;3.57;;;4.90;99.90;;;;;;5099340;28;20179;-69
2021/04/25 03:54:24;;;;;;;14.33;4.17;;;4.90;99.90;;;;;;5099187;28;20274;-69
2021/04/25 03:56:50;;;;;;;10.20;4.10;;;4.80;99.90;;;;;;5099148;28;20205;-69
2021/04/25 03:59:16;;;;;;;6.20;3.65;;;4.80;99.90;;;;;;5099529;28;20175;-69
2021/04/25 04:01:41;;;;;;;8.57;3.70;;;5.00;99.90;;;;;;5099447;28;20178;-69
2021/04/25 04:04:07;;;;;;;12.17;4.03;;;5.10;99.90;;;;;;5099820;28;20191;-69
2021/04/25 04:06:32;;;;;;;14.97;3.30;;;4.90;99.90;;;;;;5099122;28;20176;-69
2021/04/25 04:08:58;;;;;;;5.73;3.40;;;4.80;99.90;;;;;;5099040;28;20190;-69
2021/04/25 04:11:24;;;;;;;6.43;3.77;;;5.00;99.90;;;;;;5099109;28;20233;-69
2021/04/25 04:13:49;;;;;;;7.23;2.80;;;4.80;99.90;;;;;;5098941;28;20826;-69
2021/04/25 04:16:17;;;;;;;5.13;3.63;;;5.00;99.90;;;;;;5098996;28;20509;-70
2021/04/25 04:18:43;;;;;;;12.10;4.40;;;5.10;99.90;;;;;;5098964;28;20160;-69
2021/04/25 04:21:08;;;;;;;8.05;4.05;;;5.00;99.90;;;;;;5099246;28;20179;-69
2021/04/25 04:23:34;;;;;;;10.07;4.33;;;4.70;99.90;;;;;;5098928;28;20183;-69
2021/04/25 04:25:59;;;;;;;7.07;3.90;;;4.70;99.90;;;;;;5099187;28;20509;-69
2021/04/25 04:28:25;;;;;;;8.10;3.63;;;4.70;99.90;;;;;;5096743;28;20167;-69
2021/04/25 04:30:51;;;;;;;5.93;3.17;;;4.80;99.90;;;;;;5096005;28;20203;-69
2021/04/25 04:33:16;;;;;;;7.73;3.83;;;4.90;99.90;;;;;;5095831;28;20187;-69
2021/04/25 04:35:42;;;;;;;9.27;4.00;;;4.80;99.90;;;;;;5095684;28;20187;-69
2021/04/25 04:38:07;;;;;;;9.13;3.63;;;4.50;99.90;;;;;;5095580;28;20736;-69
2021/04/25 04:40:33;;;;;;;9.73;3.63;;;4.80;99.90;;;;;;5095768;28;20202;-69
2021/04/25 04:42:58;;;;;;;6.80;3.30;;;5.00;99.90;;;;;;5095411;28;20191;-69
2021/04/25 04:45:24;;;;;;;9.87;3.67;;;4.80;99.90;;;;;;5095934;28;20178;-69
2021/04/25 04:47:49;;;;;;;5.20;3.50;;;5.00;99.90;;;;;;5095653;28;20218;-69
2021/04/25 04:50:17;;;;;;;8.50;4.80;;;5.00;99.90;;;;;;5095791;28;20179;-69
2021/04/25 04:52:44;;;;;;;5.88;3.92;;;5.00;99.90;;;;;;5095311;28;20199;-69
2021/04/25 04:55:11;;;;;;;7.10;3.58;;;4.80;99.90;;;;;;5095653;28;20202;-69
2021/04/25 04:57:37;;;;;;;9.35;3.53;;;5.00;99.90;;;;;;5095411;28;20262;-69
2021/04/25 05:00:06;;;;;;;7.13;3.70;;;5.10;99.90;;;;;;5095257;28;20281;-69
2021/04/25 05:02:31;;;;;;;8.00;3.60;;;5.10;99.90;;;;;;5095423;28;20160;-69
2021/04/25 05:04:57;;;;;;;7.67;4.30;;;5.20;99.90;;;;;;5095321;28;20187;-69
2021/04/25 05:07:22;;;;;;;11.40;4.20;;;5.10;99.90;;;;;;5095271;28;20245;-69
2021/04/25 05:09:48;;;;;;;8.07;3.50;;;5.10;99.90;;;;;;5094947;28;20183;-69
2021/04/25 05:12:14;;;;;;;11.20;3.50;;;5.20;99.90;;;;;;5095558;28;20214;-70
2021/04/25 05:14:39;;;;;;;5.10;3.17;;;5.00;99.90;;;;;;5094730;28;20301;-69
2021/04/25 05:17:05;;;;;;;10.50;3.27;;;5.10;99.90;;;;;;5094915;28;20197;-69
2021/04/25 05:19:30;;;;;;;6.57;3.60;;;5.10;99.90;;;;;;5095384;28;20605;-69
2021/04/25 05:21:56;;;;;;;8.30;4.13;;;5.20;99.90;;;;;;5094784;28;20163;-69
2021/04/25 05:24:22;;;;;;;6.97;3.73;;;5.20;99.90;;;;;;5094668;28;20191;-69
2021/04/25 05:26:47;;;;;;;8.35;3.65;;;5.10;99.90;;;;;;5093300;28;20182;-69
2021/04/25 05:29:13;;;;;;;8.97;3.93;;;5.10;99.90;;;;;;5094943;28;20635;-69
2021/04/25 05:31:38;;;;;;;9.53;4.37;;;5.00;99.90;;;;;;5094582;28;20175;-69
2021/04/25 05:34:04;;;;;;;15.60;4.73;;;5.10;99.90;;;;;;5094379;28;20702;-69
2021/04/25 05:36:30;;;;;;;7.53;4.00;;;5.10;99.90;;;;;;5093137;28;20168;-69
2021/04/25 05:38:55;;;;;;;11.40;3.80;;;5.00;99.90;;;;;;5094293;28;20167;-69
2021/04/25 05:41:21;;;;;;;9.40;4.67;;;5.40;99.90;;;;;;5093702;28;20155;-69
2021/04/25 05:43:47;;;;;;;8.43;3.77;;;5.50;99.90;;;;;;5094549;28;20198;-69
2021/04/25 05:46:16;;;;;;;9.23;4.10;;;5.80;99.90;;;;;;5094309;28;20648;-69
2021/04/25 05:48:45;;;;;;;9.52;4.45;;;5.70;99.90;;;;;;5094476;28;20176;-69
2021/04/25 05:51:11;;;;;;;7.00;3.42;;;5.50;99.90;;;;;;5094127;28;20217;-69
2021/04/25 05:53:37;;;;;;;11.38;4.00;;;5.60;99.90;;;;;;5092707;28;20195;-69
2021/04/25 05:56:04;;;;;;;9.77;4.63;;;5.60;99.90;;;;;;5094335;28;20285;-69
2021/04/25 05:58:29;;;;;;;10.38;4.43;;;5.80;99.90;;;;;;5093989;28;20171;-70
2021/04/25 06:00:55;;;;;;;7.03;3.53;;;6.10;99.90;;;;;;5094301;28;20171;-69
2021/04/25 06:03:20;;;;;;;5.57;4.23;;;6.30;99.90;;;;;;5093896;28;20187;-69
2021/04/25 06:05:46;;;;;;;11.00;4.33;;;6.50;99.90;;;;;;5094412;28;20163;-69
2021/04/25 06:08:11;;;;;;;11.60;5.30;;;6.40;99.90;;;;;;5093766;28;20192;-68
2021/04/25 06:10:37;;;;;;;9.57;4.77;;;6.40;99.90;;;;;;5093835;28;20194;-69
2021/04/25 06:13:02;;;;;;;9.90;4.50;;;6.30;99.90;;;;;;5093729;28;20172;-69
2021/04/25 06:15:28;;;;;;;14.57;6.63;;;6.60;99.90;;;;;;5094148;28;20183;-70
2021/04/25 06:17:54;;;;;;;8.17;4.83;;;6.50;99.90;;;;;;5094074;28;20174;-69
2021/04/25 06:20:21;;;;;;;9.60;5.67;;;6.60;99.90;;;;;;5094335;28;20202;-69
2021/04/25 06:22:46;;;;;;;12.93;5.30;;;6.60;99.90;;;;;;5093988;28;20213;-69
2021/04/25 06:25:14;;;;;;;12.30;4.03;;;6.70;99.90;;;;;;5093420;28;20601;-69
2021/04/25 06:27:40;;;;;;;10.00;3.97;;;6.10;99.90;;;;;;5093381;28;20168;-69
2021/04/25 06:30:07;;;;;;;11.75;5.70;;;6.20;99.90;;;;;;5093438;28;20163;-68
2021/04/25 06:32:33;;;;;;;10.00;5.10;;;5.90;99.90;;;;;;5093402;28;20593;-69
2021/04/25 06:34:58;;;;;;;12.00;5.30;;;6.10;99.90;;;;;;5091990;28;20289;-69
2021/04/25 06:37:24;;;;;;;6.83;4.10;;;6.20;99.90;;;;;;5093311;28;20174;-69
2021/04/25 06:39:49;;;;;;;9.20;4.33;;;6.80;99.90;;;;;;5092034;28;20538;-69
2021/04/25 06:42:15;;;;;;;9.10;5.27;;;7.30;99.90;;;;;;5093255;28;20167;-69
2021/04/25 06:44:41;;;;;;;7.57;4.83;;;7.40;99.90;;;;;;5093197;28;20717;-69
2021/04/25 06:47:06;;;;;;;8.07;4.00;;;7.20;99.90;;;;;;5093243;28;20582;-69
2021/04/25 06:49:32;;;;;;;9.97;4.30;;;7.30;99.90;;;;;;5093702;28;20175;-69
2021/04/25 06:52:00;;;;;;;10.00;3.93;;;6.90;99.90;;;;;;5092789;28;20216;-69
2021/04/25 06:54:25;;;;;;;6.88;3.95;;;6.60;99.90;;;;;;5092921;28;20191;-69
2021/04/25 06:56:51;;;;;;;8.70;4.70;;;6.80;99.90;;;;;;5093528;28;20242;-69
2021/04/25 06:59:18;;;;;;;4.90;3.77;;;7.20;99.90;;;;;;5093157;28;20163;-69
2021/04/25 07:01:43;;;;;;;7.25;4.07;;;7.10;99.90;;;;;;5092825;28;20171;-70
2021/04/25 07:04:09;;;;;;;6.17;4.00;;;7.10;99.90;;;;;;5092955;28;20660;-69
2021/04/25 07:06:34;;;;;;;9.23;4.63;;;7.20;99.90;;;;;;5092909;28;20164;-69
2021/04/25 07:09:00;;;;;;;11.03;4.50;;;7.30;99.90;;;;;;5092706;28;20183;-69
2021/04/25 07:11:26;;;;;;;11.00;3.77;;;7.30;99.90;;;;;;5092778;28;20218;-69
2021/04/25 07:13:51;;;;;;;13.13;4.40;;;7.30;99.90;;;;;;5092674;28;20675;-69
2021/04/25 07:16:17;;;;;;;5.93;3.87;;;7.40;99.90;;;;;;5092841;28;20262;-69
2021/04/25 07:18:42;;;;;;;8.53;4.27;;;7.40;99.90;;;;;;5093114;28;20173;-69
2021/04/25 07:21:08;;;;;;;9.80;3.80;;;7.70;99.90;;;;;;5092838;28;20250;-69
2021/04/25 07:23:33;;;;;;;7.37;3.97;;;7.70;99.90;;;;;;5092857;28;20209;-69
2021/04/25 07:25:59;;;;;;;6.70;4.17;;;7.40;99.90;;;;;;5092708;28;20667;-69
2021/04/25 07:28:25;;;;;;;6.20;4.20;;;7.50;99.90;;;;;;5092974;28;20172;-69
2021/04/25 07:30:51;;;;;;;7.90;3.87;;;7.50;99.90;;;;;;5093075;28;20167;-69
2021/04/25 07:33:19;;;;;;;5.22;2.83;;;7.50;99.90;;;;;;5092787;28;20282;-69
2021/04/25 07:35:44;;;;;;;8.60;4.30;;;7.80;99.90;;;;;;5092714;28;20598;-68
2021/04/25 07:38:11;;;;;;;7.50;3.43;;;8.30;99.90;;;;;;5092574;28;20163;-69
2021/04/25 07:40:38;;;;;;;7.05;3.60;;;8.10;99.90;;;;;;5092863;28;20422;-69
2021/04/25 07:43:04;;;;;;;7.32;4.03;;;8.00;99.90;;;;;;5092722;28;20651;-69
2021/04/25 07:45:30;;;;;;;9.05;4.25;;;8.60;99.90;;;;;;5092308;28;20175;-69
2021/04/25 07:47:55;;;;;;;6.40;3.77;;;8.20;99.90;;;;;;5092424;28;20172;-69
2021/04/25 07:50:22;;;;;;;6.77;3.53;;;8.50;99.90;;;;;;5092473;28;20164;-69
2021/04/25 07:52:47;;;;;;;10.90;4.25;;;8.60;99.90;;;;;;5092466;28;20172;-69
2021/04/25 07:55:13;;;;;;;7.23;3.60;;;8.40;99.90;;;;;;5092326;28;20187;-69
2021/04/25 07:57:39;;;;;;;12.47;3.70;;;8.10;99.90;;;;;;5092661;28;20521;-69
2021/04/25 08:00:10;;;;;;;8.23;3.80;;;8.80;99.90;;;;;;5092623;28;20214;-69
2021/04/25 08:02:36;;;;;;;10.80;3.90;;;8.40;99.90;;;;;;5093359;28;20516;-70
2021/04/25 08:05:02;;;;;;;6.63;3.40;;;8.70;99.90;;;;;;5096098;28;20714;-69
2021/04/25 08:07:28;;;;;;;7.95;2.88;;;8.80;99.90;;;;;;5096083;28;20172;-69
2021/04/25 08:09:54;;;;;;;6.97;3.97;;;8.90;99.90;;;;;;5095977;28;20237;-69
2021/04/25 08:12:20;;;;;;;7.43;4.00;;;8.80;99.90;;;;;;5096127;28;20168;-69
2021/04/25 08:14:46;;;;;;;6.75;3.75;;;9.10;99.90;;;;;;5096079;28;20199;-69
2021/04/25 08:17:11;;;;;;;8.23;3.97;;;8.40;99.90;;;;;;5096081;28;20168;-69
2021/04/25 08:19:37;;;;;;;10.50;3.50;;;8.70;99.90;;;;;;5095901;28;20536;-69
2021/04/25 08:22:02;;;;;;;8.80;4.57;;;9.20;99.90;;;;;;5096074;28;20249;-70
2021/04/25 08:24:28;;;;;;;11.47;4.90;;;9.30;99.90;;;;;;5095956;28;20246;-69
2021/04/25 08:26:54;;;;;;;7.07;4.40;;;9.40;99.90;;;;;;5095909;28;20183;-69
2021/04/25 08:29:19;;;;;;;10.70;4.10;;;8.90;99.90;;;;;;5095772;28;20251;-69
2021/04/25 08:31:45;;;;;;;8.00;3.70;;;8.60;99.90;;;;;;5095909;28;20406;-69
2021/04/25 08:34:11;;;;;;;7.23;4.13;;;8.80;99.90;;;;;;5095598;28;20567;-69
2021/04/25 08:36:36;;;;;;;8.47;4.20;;;9.30;99.90;;;;;;5095724;28;20404;-69
2021/04/25 08:39:04;;;;;;;10.97;4.70;;;9.10;99.90;;;;;;5095663;28;20257;-69
2021/04/25 08:41:30;;;;;;;8.45;3.58;;;9.60;99.90;;;;;;5095491;28;20605;-69
2021/04/25 08:43:56;;;;;;;5.90;3.83;;;9.40;99.90;;;;;;5095345;28;20199;-69
2021/04/25 08:46:28;;;;;;;9.80;4.90;;;9.40;99.90;;;;;;5095380;28;20388;-69
2021/04/25 08:48:55;;;;;;;8.43;5.03;;;9.90;99.90;;;;;;5095671;28;20460;-70
2021/04/25 08:51:21;;;;;;;9.20;4.30;;;9.80;99.90;;;;;;5095336;28;20471;-69
2021/04/25 08:53:48;;;;;;;11.07;4.57;;;9.80;99.90;;;;;;5095296;28;20494;-69
2021/04/25 08:56:14;;;;;;;6.73;3.90;;;9.70;99.90;;;;;;5095585;28;20908;-70
2021/04/25 08:58:42;;;;;;;7.70;3.63;;;9.80;99.90;;;;;;5095113;28;20403;-70
2021/04/25 09:01:08;;;;;;;5.30;3.80;;;10.10;99.90;;;;;;5095374;28;20418;-69
2021/04/25 09:03:34;;;;;;;7.80;3.60;;;9.20;99.90;;;;;;5095021;28;20433;-69
2021/04/25 09:06:02;;;;;;;6.00;3.60;;;9.70;99.90;;;;;;5095128;28;20978;-70
2021/04/25 09:08:51;;;;;;;5.30;3.80;;;9.80;99.90;;;;;;5095038;28;20426;-71
2021/04/25 09:11:33;;;;;;;6.30;3.80;;;9.70;99.90;;;;;;5094966;28;20398;-68
2021/04/25 09:14:22;;;;;;;6.17;3.20;;;10.00;99.90;;;;;;5093266;28;20497;-69
2021/04/25 09:16:58;;;;;;;6.60;3.80;;;9.80;99.90;;;;;;5095095;28;20401;-69
2021/04/25 09:19:43;;;;;;;20.37;4.93;;;10.20;99.90;;;;;;5094998;28;20405;-69
2021/04/25 09:22:09;;;;;;;6.97;4.27;;;9.60;99.90;;;;;;5095091;28;20382;-69
2021/04/25 09:24:35;;;;;;;6.20;4.73;;;10.70;99.90;;;;;;5094830;28;20425;-69
2021/04/25 09:27:01;;;;;;;8.03;4.10;;;10.80;99.90;;;;;;5095026;28;20898;-69
2021/04/25 09:29:47;;;;;;;6.43;3.97;;;10.20;99.90;;;;;;5094688;28;20193;-69
2021/04/25 09:32:24;;;;;;;4.90;3.57;;;10.10;99.90;;;;;;5095021;28;20182;-69
2021/04/25 09:34:50;;;;;;;6.20;4.10;;;10.20;99.90;;;;;;5094614;28;20813;-69
2021/04/25 09:37:19;;;;;;;4.73;3.10;;;10.80;99.90;;;;;;5094682;28;20964;-69
2021/04/25 09:40:06;;;;;;;6.33;3.10;;;10.90;99.90;;;;;;5094522;28;20429;-69
2021/04/25 09:42:52;;;;;;;6.07;4.07;;;11.00;99.90;;;;;;5094727;28;20401;-69
2021/04/25 09:45:36;;;;;;;5.13;3.00;;;10.90;99.90;;;;;;5094245;28;20424;-69
2021/04/25 09:48:28;;;;;;;14.77;4.23;;;11.50;99.90;;;;;;5094739;28;20382;-69
2021/04/25 09:51:14;;;;;;;4.03;3.20;;;11.60;99.90;;;;;;5094245;28;20386;-69
2021/04/25 09:53:59;;;;;;;6.80;4.07;;;11.70;99.90;;;;;;5094439;28;20771;-69
2021/04/25 09:56:37;;;;;;;8.40;4.53;;;11.90;99.90;;;;;;5094208;28;20389;-69
2021/04/25 09:59:05;;;;;;;5.67;3.77;;;11.90;99.90;;;;;;5094069;28;20424;-69
2021/04/25 10:01:36;;;;;;;7.03;3.60;;;12.30;99.90;;;;;;5094519;28;20944;-69
2021/04/25 10:04:04;;;;;;;6.77;4.03;;;11.70;99.90;;;;;;5094460;28;20948;-69
2021/04/25 10:06:48;;;;;;;10.03;3.67;;;12.50;99.90;;;;;;5094227;28;20414;-69
2021/04/25 10:09:21;;;;;;;7.50;3.33;;;12.30;99.90;;;;;;5093688;28;20533;-69
2021/04/25 10:11:52;;;;;;;7.23;4.00;;;12.00;99.90;;;;;;5094138;28;20477;-69
2021/04/25 10:14:19;;;;;;;6.70;3.97;;;12.50;99.90;;;;;;5093944;28;20441;-69
2021/04/25 10:16:44;;;;;;;8.30;4.20;;;12.60;99.90;;;;;;5094207;28;20405;-70
2021/04/25 10:19:11;;;;;;;6.00;3.27;;;12.40;99.90;;;;;;5093530;28;20405;-70
2021/04/25 10:21:38;;;;;;;14.37;4.77;;;13.00;99.90;;;;;;5093916;28;20166;-70
2021/04/25 10:24:08;;;;;;;9.10;3.87;;;12.70;99.90;;;;;;5093950;28;20457;-70
2021/04/25 10:26:37;;;;;;;6.10;3.83;;;12.50;99.90;;;;;;5092869;28;20443;-70
2021/04/25 10:29:10;;;;;;;10.77;4.83;;;13.30;99.90;;;;;;5093505;28;20484;-70
2021/04/25 10:31:37;;;;;;;9.97;4.70;;;13.40;99.90;;;;;;5093443;28;20410;-70
2021/04/25 10:34:18;;;;;;;6.43;3.83;;;13.40;99.90;;;;;;5093591;28;20544;-70
2021/04/25 10:36:44;;;;;;;6.60;3.80;;;13.90;99.90;;;;;;5093531;28;20435;-69
2021/04/25 10:39:41;;;;;;;8.50;4.77;;;13.60;99.90;;;;;;5093345;28;20402;-69
2021/04/25 10:42:23;;;;;;;6.20;4.00;;;13.50;99.90;;;;;;5093678;28;20180;-70
2021/04/25 10:45:04;;;;;;;12.70;5.80;;;12.90;99.90;;;;;;5093063;28;20422;-70
2021/04/25 10:47:40;;;;;;;6.50;4.73;;;12.10;99.90;;;;;;5093326;28;20728;-70
2021/04/25 10:50:15;;;;;;;10.67;4.50;;;13.70;99.90;;;;;;5093256;28;20774;-70
2021/04/25 10:52:50;;;;;;;5.57;4.00;;;14.10;99.90;;;;;;5093291;28;20821;-70
2021/04/25 10:55:29;;;;;;;8.27;5.03;;;13.70;99.90;;;;;;5093094;28;20894;-69
2021/04/25 10:57:59;;;;;;;7.50;4.87;;;13.60;99.90;;;;;;5093324;28;20887;-70
2021/04/25 11:03:32;;;;;;;8.83;4.60;;;14.00;99.90;;;;;;5093105;28;20404;-70
2021/04/25 11:05:58;;;;;;;10.07;6.70;;;14.10;99.90;;;;;;5010660;28;20436;-70
2021/04/25 11:08:29;;;;;;;7.03;4.13;;;13.80;99.90;;;;;;5075203;28;20942;-70
2021/04/25 11:11:01;;;;;;;6.50;3.97;;;13.80;99.90;;;;;;5093020;28;20495;-70
2021/04/25 11:16:21;;;;;;;10.00;4.60;;;14.40;99.90;;;;;;5093087;28;20462;-70
2021/04/25 11:19:06;;;;;;;8.03;4.30;;;15.00;99.90;;;;;;5079031;28;20445;-70
2021/04/25 11:21:36;;;;;;;5.70;4.03;;;14.60;99.90;;;;;;5093131;28;20565;-70
2021/04/25 11:24:01;;;;;;;10.23;4.60;;;14.00;99.90;;;;;;5092819;28;20955;-71
2021/04/25 11:29:09;;;;;;;7.70;4.00;;;15.20;99.90;;;;;;5092742;28;20210;-71
2021/04/25 11:34:25;;;;;;;5.30;3.67;;;15.90;99.90;;;;;;5092722;28;20521;-70
2021/04/25 11:36:52;;;;;;;7.10;4.30;;;16.10;99.90;;;;;;5093308;28;20397;-70
2021/04/25 11:39:22;;;;;;;6.67;4.67;;;16.40;99.90;;;;;;5096644;28;20405;-70
2021/04/25 11:41:49;;;;;;;7.80;4.70;;;16.10;99.90;;;;;;5097011;28;20400;-70
2021/04/25 11:44:33;;;;;;;5.23;4.13;;;15.80;99.90;;;;;;5096842;28;20436;-70
2021/04/25 11:47:05;;;;;;;7.50;4.83;;;16.00;99.90;;;;;;5095119;28;20500;-70
2021/04/25 11:49:40;;;;;;;6.87;4.40;;;16.30;99.90;;;;;;5096651;28;20759;-70
2021/04/25 11:52:07;;;;;;;5.60;4.47;;;16.90;99.90;;;;;;5096313;28;20381;-70
2021/04/25 11:54:34;;;;;;;11.13;6.40;;;16.50;99.90;;;;;;5096025;28;20505;-70
2021/04/25 11:57:15;;;;;;;8.73;4.60;;;17.20;99.90;;;;;;5096430;28;20963;-70
2021/04/25 11:59:52;;;;;;;10.33;4.70;;;17.60;99.90;;;;;;5096265;28;20811;-70
2021/04/25 12:02:18;;;;;;;7.43;5.10;;;17.40;99.90;;;;;;5096337;28;20504;-70
2021/04/25 12:04:51;;;;;;;10.33;5.37;;;16.00;99.90;;;;;;5095842;28;20433;-70
2021/04/25 12:07:40;;;;;;;5.40;4.60;;;16.00;99.90;;;;;;5096262;28;20172;-70
2021/04/25 12:10:21;;;;;;;8.23;5.17;;;16.40;99.90;;;;;;5085728;28;20433;-70
2021/04/25 12:12:55;;;;;;;8.73;5.10;;;17.00;99.90;;;;;;5096595;28;20851;-70
2021/04/25 12:15:22;;;;;;;8.27;5.77;;;17.30;99.90;;;;;;5095776;28;20481;-69
2021/04/25 12:17:55;;;;;;;5.87;4.23;;;16.60;99.90;;;;;;5095855;28;20496;-67
2021/04/25 12:20:21;;;;;;;5.13;4.30;;;18.90;99.90;;;;;;5095876;28;20403;-67
2021/04/25 12:22:48;;;;;;;5.00;3.37;;;18.70;99.90;;;;;;5095590;28;20424;-68
2021/04/25 12:25:14;;;;;;;8.30;4.93;;;19.10;99.90;;;;;;5095625;28;20435;-67
2021/04/25 12:27:48;;;;;;;5.97;4.60;;;19.40;99.90;;;;;;5095589;28;20436;-67
2021/04/25 12:30:20;;;;;;;6.37;4.53;;;18.80;99.90;;;;;;5095623;28;20424;-68
2021/04/25 12:32:46;;;;;;;7.83;5.37;;;18.70;99.90;;;;;;5095588;28;20833;-71
2021/04/25 12:35:11;;;;;;;5.53;4.83;;;19.50;99.90;;;;;;5096008;28;20532;-66
2021/04/25 12:37:42;;;;;;;5.87;4.40;;;18.90;99.90;;;;;;5095767;28;20167;-67
2021/04/25 12:40:34;;;;;;;5.80;4.17;;;19.20;99.90;;;;;;5095460;28;20160;-67
2021/04/25 12:43:07;;;;;;;8.00;4.70;;;19.80;99.90;;;;;;5095967;28;20886;-68
2021/04/25 12:45:33;;;;;;;7.07;4.30;;;19.10;99.90;;;;;;5095437;28;20398;-68
2021/04/25 12:47:58;;;;;;;8.23;4.23;;;19.50;99.90;;;;;;5095464;28;20427;-69
2021/04/25 12:50:24;;;;;;;6.80;3.77;;;19.60;99.90;;;;;;5094701;28;20165;-70
2021/04/25 12:52:50;;;;;;;10.90;4.80;;;19.20;99.90;;;;;;5094026;28;20526;-70
2021/04/25 12:55:28;;;;;;;8.53;3.90;;;19.40;99.90;;;;;;5095430;28;20294;-69
2021/04/25 12:58:07;;;;;;;7.93;4.00;;;19.70;99.90;;;;;;5095111;28;20169;-70
2021/04/25 13:00:32;;;;;;;4.53;3.67;;;18.90;99.90;;;;;;5094897;28;20430;-69
2021/04/25 13:02:58;;;;;;;5.60;4.00;;;19.20;99.90;;;;;;5095260;28;20439;-70
2021/04/25 13:05:24;;;;;;;5.70;3.70;;;19.30;99.90;;;;;;5095153;28;20710;-69
2021/04/25 13:07:49;;;;;;;4.43;3.70;;;19.40;99.90;;;;;;5094585;28;20247;-70